createdAt,value
2022-11-13T00:00:34.429Z,10.20
2022-11-13T00:03:02.319Z,12.00
2022-11-13T00:05:30.261Z,10.13
2022-11-13T00:07:58.194Z,10.37
2022-11-13T00:10:26.124Z,8.47
2022-11-13T00:12:56.084Z,11.57
2022-11-13T00:15:24.056Z,8.67
2022-11-13T00:17:51.937Z,7.80
2022-11-13T00:20:20.396Z,8.20
2022-11-13T00:22:48.399Z,9.43
2022-11-13T00:25:16.365Z,9.00
2022-11-13T00:27:44.301Z,9.90
2022-11-13T00:30:19.027Z,8.33
2022-11-13T00:32:47.413Z,6.43
2022-11-13T00:35:15.405Z,6.00
2022-11-13T00:37:43.312Z,12.33
2022-11-13T00:40:12.043Z,12.20
2022-11-13T00:42:39.940Z,12.73
2022-11-13T00:45:09.152Z,10.40
2022-11-13T00:47:38.418Z,9.30
2022-11-13T00:50:07.016Z,8.63
2022-11-13T00:52:34.905Z,9.10
2022-11-13T00:55:02.963Z,6.33
2022-11-13T00:57:30.873Z,7.97
2022-11-13T00:59:58.797Z,8.53
2022-11-13T01:02:26.687Z,11.33
2022-11-13T01:04:55.981Z,9.07
2022-11-13T01:07:23.849Z,8.60
2022-11-13T01:09:51.923Z,7.73
2022-11-13T01:12:19.833Z,6.60
2022-11-13T01:14:47.746Z,7.20
2022-11-13T01:17:15.614Z,7.70
2022-11-13T01:19:43.604Z,8.10
2022-11-13T01:22:13.014Z,5.90
2022-11-13T01:24:41.006Z,6.30
2022-11-13T01:27:08.925Z,5.50
2022-11-13T01:29:38.643Z,6.83
2022-11-13T01:32:06.597Z,8.23
2022-11-13T01:34:34.571Z,11.37
2022-11-13T01:37:02.527Z,13.47
2022-11-13T01:39:32.122Z,11.03
2022-11-13T01:42:00.032Z,8.30
2022-11-13T01:44:46.752Z,12.77
2022-11-13T01:47:14.784Z,11.57
2022-11-13T01:49:44.037Z,13.83
2022-11-13T01:52:14.777Z,13.03
2022-11-13T01:54:47.552Z,10.30
2022-11-13T01:57:16.079Z,13.33
2022-11-13T01:59:47.341Z,12.77
2022-11-13T02:02:15.312Z,13.47
2022-11-13T02:04:43.496Z,13.57
2022-11-13T02:07:12.895Z,10.90
2022-11-13T02:09:43.819Z,11.47
2022-11-13T02:12:15.184Z,11.47
2022-11-13T02:14:45.200Z,10.23
2022-11-13T02:17:15.765Z,9.30
2022-11-13T02:19:46.373Z,8.53
2022-11-13T02:22:20.127Z,8.97
2022-11-13T02:24:54.653Z,9.60
2022-11-13T02:27:27.756Z,8.53
2022-11-13T02:29:55.719Z,8.23
2022-11-13T02:32:23.643Z,8.30
2022-11-13T02:34:51.525Z,9.90
2022-11-13T02:37:19.453Z,8.27
2022-11-13T02:39:47.358Z,7.40
2022-11-13T02:42:16.591Z,6.77
2022-11-13T02:44:44.498Z,7.90
2022-11-13T02:47:12.387Z,7.10
2022-11-13T02:49:40.271Z,7.27
2022-11-13T02:52:08.249Z,8.00
2022-11-13T02:54:36.129Z,8.10
2022-11-13T02:57:04.161Z,11.83
2022-11-13T02:59:33.452Z,9.00
2022-11-13T03:02:01.412Z,8.80
2022-11-13T03:04:50.194Z,7.77
2022-11-13T03:07:17.344Z,9.23
2022-11-13T03:09:45.307Z,8.60
2022-11-13T03:12:13.223Z,6.50
2022-11-13T03:14:42.475Z,5.90
2022-11-13T03:17:10.363Z,6.30
2022-11-13T03:19:38.236Z,6.23
2022-11-13T03:22:06.117Z,6.00
2022-11-13T03:24:34.026Z,6.33
2022-11-13T03:27:02.307Z,7.03
2022-11-13T03:29:30.314Z,6.67
2022-11-13T03:31:59.629Z,6.13
2022-11-13T03:34:27.535Z,7.70
2022-11-13T03:36:55.413Z,7.17
2022-11-13T03:39:23.375Z,7.20
2022-11-13T03:41:51.288Z,6.23
2022-11-13T03:44:19.188Z,7.40
2022-11-13T03:46:47.060Z,8.93
2022-11-13T03:49:18.881Z,9.23
2022-11-13T03:51:46.765Z,7.27
2022-11-13T03:54:14.663Z,9.10
2022-11-13T03:56:42.543Z,7.57
2022-11-13T03:59:10.541Z,7.63
2022-11-13T04:01:38.441Z,8.80
2022-11-13T04:04:06.514Z,8.90
2022-11-13T04:06:35.846Z,7.80
2022-11-13T04:09:03.770Z,8.47
2022-11-13T04:11:31.671Z,9.43
2022-11-13T04:13:59.546Z,9.17
2022-11-13T04:16:27.453Z,8.93
2022-11-13T04:18:55.748Z,8.33
2022-11-13T04:21:23.717Z,8.47
2022-11-13T04:23:53.097Z,9.40
2022-11-13T04:26:21.049Z,8.83
2022-11-13T04:28:48.917Z,9.50
2022-11-13T04:31:16.829Z,8.50
2022-11-13T04:33:44.707Z,8.67
2022-11-13T04:36:12.608Z,9.00
2022-11-13T04:38:40.475Z,9.03
2022-11-13T04:41:26.950Z,10.10
2022-11-13T04:43:54.871Z,8.93
2022-11-13T04:46:22.762Z,9.33
2022-11-13T04:48:50.636Z,8.83
2022-11-13T04:51:18.576Z,7.73
2022-11-13T04:53:46.524Z,7.57
2022-11-13T04:56:15.793Z,6.57
2022-11-13T04:58:43.696Z,7.63
2022-11-13T05:01:11.588Z,9.27
2022-11-13T05:03:39.470Z,9.70
2022-11-13T05:06:09.213Z,9.70
2022-11-13T05:08:37.535Z,12.50
2022-11-13T05:11:05.820Z,14.70
2022-11-13T05:13:35.896Z,12.23
2022-11-13T05:16:04.890Z,8.50
2022-11-13T05:18:34.861Z,6.50
2022-11-13T05:21:03.021Z,6.70
2022-11-13T05:23:31.019Z,6.80
2022-11-13T05:26:02.835Z,7.03
2022-11-13T05:28:31.067Z,10.70
2022-11-13T05:31:06.293Z,15.40
2022-11-13T05:33:34.574Z,13.23
2022-11-13T05:36:03.435Z,13.47
2022-11-13T05:38:31.540Z,13.93
2022-11-13T05:41:03.402Z,12.90
2022-11-13T05:43:31.414Z,12.13
2022-11-13T05:46:03.501Z,11.97
2022-11-13T05:48:33.086Z,12.17
2022-11-13T05:51:04.640Z,12.77
2022-11-13T05:53:33.926Z,15.40
2022-11-13T05:56:02.254Z,12.93
2022-11-13T05:58:30.602Z,15.60
2022-11-13T06:01:10.181Z,13.73
2022-11-13T06:03:39.736Z,12.90
2022-11-13T06:06:08.833Z,13.20
2022-11-13T06:08:36.788Z,15.40
2022-11-13T06:11:06.212Z,15.37
2022-11-13T06:13:34.263Z,15.10
2022-11-13T06:16:02.633Z,14.97
2022-11-13T06:18:30.771Z,18.93
2022-11-13T06:21:03.745Z,13.53
2022-11-13T06:23:33.345Z,16.13
2022-11-13T06:26:02.227Z,16.43
2022-11-13T06:28:30.284Z,14.60
2022-11-13T06:31:04.020Z,13.37
2022-11-13T06:33:32.181Z,14.70
2022-11-13T06:36:04.527Z,17.00
2022-11-13T06:38:33.812Z,16.10
2022-11-13T06:41:02.382Z,17.97
2022-11-13T06:43:30.754Z,16.70
2022-11-13T06:45:59.412Z,17.17
2022-11-13T06:48:27.782Z,19.37
2022-11-13T06:50:55.890Z,19.50
2022-11-13T06:53:25.164Z,22.17
2022-11-13T06:55:53.092Z,20.20
2022-11-13T06:58:21.010Z,18.73
2022-11-13T07:00:49.091Z,15.73
2022-11-13T07:03:18.247Z,18.27
2022-11-13T07:05:46.570Z,15.60
2022-11-13T07:08:14.941Z,16.50
2022-11-13T07:10:44.723Z,17.73
2022-11-13T07:13:12.636Z,22.53
2022-11-13T07:15:41.276Z,21.93
2022-11-13T07:18:09.220Z,22.90
2022-11-13T07:20:37.092Z,25.53
2022-11-13T07:23:05.383Z,27.33
2022-11-13T07:25:33.532Z,23.57
2022-11-13T07:28:02.928Z,30.33
2022-11-13T07:30:30.821Z,19.17
2022-11-13T07:33:03.025Z,20.07
2022-11-13T07:35:31.028Z,18.50
2022-11-13T07:37:59.315Z,17.00
2022-11-13T07:40:27.233Z,15.63
2022-11-13T07:42:59.869Z,14.27
2022-11-13T07:45:29.554Z,14.47
2022-11-13T07:48:01.013Z,14.50
2022-11-13T07:50:29.831Z,13.70
2022-11-13T07:52:58.637Z,12.83
2022-11-13T07:55:26.601Z,23.17
2022-11-13T07:57:56.983Z,15.87
2022-11-13T08:00:25.163Z,12.90
2022-11-13T08:02:54.745Z,13.47
2022-11-13T08:05:23.001Z,12.63
2022-11-13T08:07:51.768Z,13.10
2022-11-13T08:10:21.242Z,13.77
2022-11-13T08:12:49.135Z,16.20
2022-11-13T08:15:17.239Z,15.20
2022-11-13T08:17:45.121Z,16.33
2022-11-13T08:20:14.644Z,23.60
2022-11-13T08:22:42.812Z,44.27
2022-11-13T08:25:10.768Z,26.00
2022-11-13T08:27:38.665Z,18.13
2022-11-13T08:30:07.613Z,18.93
2022-11-13T08:32:35.500Z,27.30
2022-11-13T08:35:03.412Z,19.00
2022-11-13T08:37:33.695Z,20.00
2022-11-13T08:40:01.765Z,20.17
2022-11-13T08:42:29.714Z,18.77
2022-11-13T08:44:57.597Z,20.30
2022-11-13T08:47:29.598Z,17.77
2022-11-13T08:49:57.727Z,16.73
2022-11-13T08:52:25.605Z,16.90
2022-11-13T08:54:54.908Z,15.67
2022-11-13T08:57:22.868Z,16.70
2022-11-13T08:59:50.826Z,16.50
2022-11-13T09:02:18.737Z,17.30
2022-11-13T09:04:46.711Z,16.87
2022-11-13T09:07:14.876Z,16.57
2022-11-13T09:09:42.885Z,16.07
2022-11-13T09:12:12.199Z,15.60
2022-11-13T09:14:40.143Z,15.47
2022-11-13T09:17:08.064Z,14.13
2022-11-13T09:19:35.933Z,14.67
2022-11-13T09:22:03.867Z,14.40
2022-11-13T09:24:31.818Z,16.27
2022-11-13T09:26:59.747Z,15.70
2022-11-13T09:29:29.599Z,14.37
2022-11-13T09:31:57.796Z,13.73
2022-11-13T09:34:27.108Z,12.87
2022-11-13T09:36:55.404Z,13.57
2022-11-13T09:39:23.462Z,12.60
2022-11-13T09:41:54.361Z,14.23
2022-11-13T09:44:29.815Z,15.23
2022-11-13T09:47:06.307Z,14.70
2022-11-13T09:49:35.911Z,13.27
2022-11-13T09:52:07.179Z,15.53
2022-11-13T09:54:35.261Z,29.00
2022-11-13T09:57:08.634Z,13.80
2022-11-13T09:59:41.889Z,11.83
2022-11-13T10:02:19.441Z,11.67
2022-11-13T10:04:57.820Z,12.73
2022-11-13T10:07:44.725Z,13.40
2022-11-13T10:10:32.235Z,12.80
2022-11-13T10:13:01.462Z,12.47
2022-11-13T10:15:29.409Z,12.80
2022-11-13T10:18:04.691Z,14.23
2022-11-13T10:20:37.561Z,14.90
2022-11-13T10:23:10.245Z,13.10
2022-11-13T10:25:43.505Z,12.57
2022-11-13T10:28:35.387Z,12.20
2022-11-13T10:31:02.250Z,12.70
2022-11-13T10:33:31.778Z,12.03
2022-11-13T10:36:04.801Z,13.40
2022-11-13T10:38:36.606Z,12.43
2022-11-13T10:41:10.700Z,13.10
2022-11-13T10:43:53.746Z,15.40
2022-11-13T10:46:24.488Z,13.07
2022-11-13T10:48:53.751Z,12.80
2022-11-13T10:51:25.317Z,13.57
2022-11-13T10:53:54.295Z,12.57
2022-11-13T10:56:26.906Z,11.93
2022-11-13T10:59:02.509Z,11.80
2022-11-13T11:01:30.863Z,11.97
2022-11-13T11:04:00.212Z,11.37
2022-11-13T11:07:04.401Z,12.80
2022-11-13T11:09:24.853Z,9.77
2022-11-13T11:12:19.091Z,8.47
2022-11-13T11:14:59.720Z,9.70
2022-11-13T11:17:32.851Z,10.13
2022-11-13T11:20:04.778Z,10.00
2022-11-13T11:22:35.457Z,9.40
2022-11-13T11:25:07.343Z,9.33
2022-11-13T11:27:38.225Z,8.13
2022-11-13T11:30:08.216Z,8.67
2022-11-13T11:32:42.123Z,9.60
2022-11-13T11:35:16.002Z,9.80
2022-11-13T11:37:51.576Z,9.73
2022-11-13T11:40:26.579Z,9.50
2022-11-13T11:42:59.820Z,9.33
2022-11-13T11:45:30.449Z,10.10
2022-11-13T11:47:59.619Z,8.20
2022-11-13T11:50:34.705Z,8.60
2022-11-13T11:53:06.449Z,8.27
2022-11-13T11:55:53.660Z,9.30
2022-11-13T11:58:31.508Z,8.23
2022-11-13T12:01:06.669Z,8.50
2022-11-13T12:04:00.724Z,7.00
2022-11-13T12:06:38.956Z,7.10
2022-11-13T12:09:11.515Z,7.77
2022-11-13T12:11:42.489Z,6.97
2022-11-13T12:14:17.684Z,9.90
2022-11-13T12:16:51.666Z,8.57
2022-11-13T12:19:27.542Z,10.13
2022-11-13T12:22:04.045Z,8.50
2022-11-13T12:24:50.722Z,9.50
2022-11-13T12:27:26.813Z,8.50
2022-11-13T12:30:05.268Z,8.73
2022-11-13T12:32:55.144Z,42.47
2022-11-13T12:35:25.160Z,7.87
2022-11-13T12:37:57.661Z,8.07
2022-11-13T12:40:30.289Z,7.23
2022-11-13T12:43:08.372Z,7.50
2022-11-13T12:45:50.929Z,8.67
2022-11-13T12:48:28.969Z,8.50
2022-11-13T12:51:01.519Z,9.73
2022-11-13T12:53:32.284Z,19.27
2022-11-13T12:56:01.782Z,11.87
2022-11-13T12:58:31.840Z,9.23
2022-11-13T13:01:03.856Z,8.40
2022-11-13T13:04:03.890Z,10.00
2022-11-13T13:06:47.361Z,8.40
2022-11-13T13:09:28.500Z,8.87
2022-11-13T13:12:03.623Z,8.40
2022-11-13T13:14:57.455Z,7.47
2022-11-13T13:17:25.422Z,8.50
2022-11-13T13:20:00.763Z,9.30
2022-11-13T13:22:30.927Z,8.80
2022-11-13T13:25:10.555Z,9.37
2022-11-13T13:27:41.488Z,9.50
2022-11-13T13:30:21.460Z,9.77
2022-11-13T13:32:55.330Z,10.30
2022-11-13T13:35:26.704Z,10.93
2022-11-13T13:37:58.665Z,9.57
2022-11-13T13:40:36.495Z,9.83
2022-11-13T13:43:23.864Z,10.70
2022-11-13T13:45:57.824Z,11.00
2022-11-13T13:48:28.080Z,11.30
2022-11-13T13:50:56.740Z,10.37
2022-11-13T13:53:27.243Z,11.53
2022-11-13T13:55:57.511Z,11.47
2022-11-13T13:58:28.310Z,11.23
2022-11-13T14:01:17.771Z,11.37
2022-11-13T14:03:46.597Z,10.87
2022-11-13T14:06:22.474Z,15.43
2022-11-13T14:08:50.515Z,10.60
2022-11-13T14:11:22.088Z,11.53
2022-11-13T14:13:50.008Z,11.57
2022-11-13T14:16:17.876Z,11.57
2022-11-13T14:18:45.795Z,14.20
2022-11-13T14:21:17.073Z,11.20
2022-11-13T14:23:48.195Z,12.07
2022-11-13T14:26:16.347Z,11.40
2022-11-13T14:28:53.237Z,10.70
2022-11-13T14:31:27.157Z,17.90
2022-11-13T14:33:55.356Z,11.23
2022-11-13T14:36:27.387Z,11.23
2022-11-13T14:38:55.462Z,11.60
2022-11-13T14:41:25.897Z,12.83
2022-11-13T14:43:55.502Z,13.00
2022-11-13T14:46:31.728Z,13.10
2022-11-13T14:48:59.750Z,11.90
2022-11-13T14:51:29.208Z,11.13
2022-11-13T14:54:06.151Z,12.40
2022-11-13T14:56:37.483Z,13.03
2022-11-13T14:59:19.328Z,11.50
2022-11-13T15:01:55.444Z,11.80
2022-11-13T15:04:23.421Z,13.60
2022-11-13T15:06:55.557Z,12.40
2022-11-13T15:09:24.893Z,12.23
2022-11-13T15:11:53.066Z,12.33
2022-11-13T15:14:23.155Z,13.30
2022-11-13T15:16:53.069Z,11.63
2022-11-13T15:19:22.323Z,13.33
2022-11-13T15:22:20.470Z,12.83
2022-11-13T15:24:38.209Z,13.27
2022-11-13T15:27:06.917Z,12.30
2022-11-13T15:29:36.328Z,12.80
2022-11-13T15:32:04.399Z,12.20
2022-11-13T15:34:32.464Z,13.07
2022-11-13T15:37:00.376Z,12.10
2022-11-13T15:39:28.313Z,12.77
2022-11-13T15:41:56.253Z,14.60
2022-11-13T15:44:24.257Z,14.00
2022-11-13T15:46:53.600Z,13.03
2022-11-13T15:49:21.677Z,13.40
2022-11-13T15:51:49.803Z,14.70
2022-11-13T15:54:20.417Z,13.93
2022-11-13T15:56:48.767Z,16.20
2022-11-13T15:59:17.895Z,15.47
2022-11-13T16:01:46.024Z,16.48
2022-11-13T16:04:16.445Z,17.00
2022-11-13T16:06:45.044Z,16.00
2022-11-13T16:09:15.127Z,17.47
2022-11-13T16:11:43.604Z,16.80
2022-11-13T16:14:11.564Z,18.40
2022-11-13T16:16:41.177Z,16.07
2022-11-13T16:19:12.370Z,18.40
2022-11-13T16:21:41.669Z,18.10
2022-11-13T16:24:10.592Z,17.43
2022-11-13T16:26:38.621Z,18.60
2022-11-13T16:29:15.488Z,19.47
2022-11-13T16:31:43.480Z,20.00
2022-11-13T16:34:11.417Z,17.67
2022-11-13T16:36:39.353Z,18.30
2022-11-13T16:39:13.120Z,20.43
2022-11-13T16:41:41.021Z,18.57
2022-11-13T16:44:08.922Z,19.13
2022-11-13T16:46:41.701Z,17.20
2022-11-13T16:49:16.772Z,15.90
2022-11-13T16:51:44.774Z,14.67
2022-11-13T16:54:14.212Z,16.57
2022-11-13T16:56:42.134Z,19.30
2022-11-13T16:59:11.364Z,20.73
2022-11-13T17:01:39.551Z,18.27
2022-11-13T17:04:07.713Z,19.00
2022-11-13T17:06:37.061Z,18.10
2022-11-13T17:09:06.649Z,18.37
2022-11-13T17:11:35.915Z,17.00
2022-11-13T17:14:04.680Z,17.27
2022-11-13T17:16:32.997Z,21.90
2022-11-13T17:19:01.455Z,24.30
2022-11-13T17:21:30.556Z,24.87
2022-11-13T17:23:59.308Z,19.43
2022-11-13T17:26:27.233Z,21.17
2022-11-13T17:28:58.293Z,22.20
2022-11-13T17:31:26.517Z,22.83
2022-11-13T17:33:54.826Z,25.70
2022-11-13T17:36:22.798Z,36.30
2022-11-13T17:38:50.937Z,33.60
2022-11-13T17:41:19.225Z,29.93
2022-11-13T17:43:47.139Z,30.40
2022-11-13T17:46:18.028Z,29.67
2022-11-13T17:48:48.092Z,29.17
2022-11-13T17:51:16.520Z,24.87
2022-11-13T17:53:44.903Z,24.40
2022-11-13T17:56:13.774Z,24.00
2022-11-13T17:58:43.224Z,21.17
2022-11-13T18:01:12.807Z,24.13
2022-11-13T18:03:42.217Z,23.80
2022-11-13T18:06:13.374Z,29.07
2022-11-13T18:08:42.399Z,29.83
2022-11-13T18:11:11.604Z,36.60
2022-11-13T18:13:39.539Z,36.40
2022-11-13T18:16:09.068Z,51.80
2022-11-13T18:18:37.464Z,35.73
2022-11-13T18:21:22.558Z,34.47
2022-11-13T18:23:52.691Z,30.83
2022-11-13T18:26:20.721Z,25.67
2022-11-13T18:28:48.608Z,28.00
2022-11-13T18:31:18.997Z,37.70
2022-11-13T18:33:49.435Z,35.03
2022-11-13T18:36:19.020Z,32.80
2022-11-13T18:38:46.928Z,31.90
2022-11-13T18:41:17.404Z,37.90
2022-11-13T18:43:46.366Z,36.77
2022-11-13T18:46:16.008Z,39.07
2022-11-13T18:48:44.870Z,41.30
2022-11-13T18:51:14.714Z,39.33
2022-11-13T18:53:45.670Z,35.17
2022-11-13T18:56:15.119Z,35.73
2022-11-13T18:58:44.209Z,36.27
2022-11-13T19:01:20.510Z,42.23
2022-11-13T19:04:16.058Z,45.30
2022-11-13T19:06:39.389Z,45.47
2022-11-13T19:09:12.166Z,46.80
2022-11-13T19:11:40.233Z,45.90
2022-11-13T19:14:08.441Z,42.70
2022-11-13T19:16:39.155Z,34.70
2022-11-13T19:19:08.967Z,32.73
2022-11-13T19:21:37.447Z,26.20
2022-11-13T19:24:05.971Z,29.67
2022-11-13T19:26:35.340Z,26.93
2022-11-13T19:29:03.235Z,26.30
2022-11-13T19:31:31.256Z,26.33
2022-11-13T19:34:00.735Z,26.93
2022-11-13T19:36:30.130Z,25.13
2022-11-13T19:38:58.690Z,27.30
2022-11-13T19:41:27.949Z,27.83
2022-11-13T19:43:59.324Z,30.00
2022-11-13T19:46:27.575Z,27.57
2022-11-13T19:48:55.916Z,26.90
2022-11-13T19:51:25.363Z,25.77
2022-11-13T19:53:54.257Z,27.47
2022-11-13T19:56:23.064Z,26.53
2022-11-13T19:58:52.383Z,27.63
2022-11-13T20:01:23.553Z,24.83
2022-11-13T20:03:55.133Z,26.83
2022-11-13T20:06:23.096Z,25.47
2022-11-13T20:08:51.004Z,25.43
2022-11-13T20:11:18.963Z,28.70
2022-11-13T20:13:46.966Z,25.80
2022-11-13T20:16:16.160Z,27.30
2022-11-13T20:18:45.724Z,28.90
2022-11-13T20:21:13.803Z,29.73
2022-11-13T20:23:41.937Z,27.87
2022-11-13T20:26:13.605Z,26.37
2022-11-13T20:28:41.526Z,27.80
2022-11-13T20:31:14.242Z,27.57
2022-11-13T20:33:42.187Z,27.70
2022-11-13T20:36:11.576Z,45.17
2022-11-13T20:38:39.841Z,34.70
2022-11-13T20:41:09.120Z,31.13
2022-11-13T20:43:37.084Z,23.53
2022-11-13T20:46:05.219Z,22.43
2022-11-13T20:48:34.261Z,29.30
2022-11-13T20:51:07.131Z,30.87
2022-11-13T20:53:36.524Z,25.13
2022-11-13T20:56:04.890Z,28.30
2022-11-13T20:58:32.912Z,35.03
2022-11-13T21:01:04.732Z,27.63
2022-11-13T21:03:37.156Z,25.30
2022-11-13T21:06:09.025Z,26.83
2022-11-13T21:08:38.476Z,27.67
2022-11-13T21:11:08.255Z,25.60
2022-11-13T21:13:36.189Z,26.03
2022-11-13T21:16:06.698Z,27.17
2022-11-13T21:18:34.636Z,28.97
2022-11-13T21:21:07.353Z,27.80
2022-11-13T21:23:35.283Z,25.30
2022-11-13T21:26:06.594Z,24.13
2022-11-13T21:28:34.981Z,23.13
2022-11-13T21:31:03.873Z,27.70
2022-11-13T21:33:32.029Z,24.37
2022-11-13T21:36:05.320Z,20.90
2022-11-13T21:38:33.436Z,25.30
2022-11-13T21:41:19.796Z,22.60
2022-11-13T21:43:49.115Z,23.77
2022-11-13T21:46:17.175Z,23.37
2022-11-13T21:48:45.151Z,24.27
2022-11-13T21:51:13.395Z,22.87
2022-11-13T21:53:42.841Z,24.80
2022-11-13T21:56:15.379Z,23.60
2022-11-13T21:58:44.304Z,25.07
2022-11-13T22:01:14.203Z,25.60
2022-11-13T22:03:42.111Z,23.10
2022-11-13T22:06:14.283Z,24.73
2022-11-13T22:08:42.346Z,23.67
2022-11-13T22:11:10.326Z,22.10
2022-11-13T22:13:38.251Z,22.90
2022-11-13T22:16:07.108Z,23.10
2022-11-13T22:18:36.407Z,24.23
2022-11-13T22:21:05.092Z,25.40
2022-11-13T22:23:33.056Z,25.17
2022-11-13T22:26:02.567Z,23.50
2022-11-13T22:28:31.031Z,26.10
2022-11-13T22:30:59.253Z,21.10
2022-11-13T22:33:28.622Z,22.57
2022-11-13T22:36:03.168Z,22.57
2022-11-13T22:38:31.237Z,23.10
2022-11-13T22:41:04.352Z,22.73
2022-11-13T22:43:36.239Z,22.17
2022-11-13T22:46:08.835Z,21.23
2022-11-13T22:48:37.710Z,19.47
2022-11-13T22:51:09.071Z,20.23
2022-11-13T22:53:37.111Z,23.93
2022-11-13T22:56:06.423Z,23.83
2022-11-13T22:58:34.605Z,22.00
2022-11-13T23:01:07.409Z,26.30
2022-11-13T23:03:38.289Z,22.53
2022-11-13T23:06:08.746Z,21.90
2022-11-13T23:08:38.903Z,21.60
2022-11-13T23:11:07.481Z,20.30
2022-11-13T23:13:35.786Z,21.30
2022-11-13T23:16:03.958Z,21.17
2022-11-13T23:18:32.403Z,19.87
2022-11-13T23:21:00.474Z,20.97
2022-11-13T23:23:29.858Z,21.67
2022-11-13T23:25:57.822Z,18.97
2022-11-13T23:28:25.814Z,24.63
2022-11-13T23:30:53.972Z,21.23
2022-11-13T23:33:22.242Z,20.90
2022-11-13T23:35:50.404Z,22.87
2022-11-13T23:38:18.398Z,23.10
2022-11-13T23:40:47.709Z,21.17
2022-11-13T23:43:15.629Z,26.47
2022-11-13T23:45:43.832Z,22.53
2022-11-13T23:48:11.906Z,23.80
2022-11-13T23:50:39.859Z,20.33
2022-11-13T23:53:08.156Z,22.20
2022-11-13T23:55:36.096Z,22.00
2022-11-13T23:58:06.564Z,21.50
